sensor_id;sensor_type;location;lat;lon;timestamp;temperature;humidity
28524;DHT22;15734;50.904;6.922;2023-07-20T00:01:27;16.90;99.90
28524;DHT22;15734;50.904;6.922;2023-07-20T00:03:53;17.00;99.90
28524;DHT22;15734;50.904;6.922;2023-07-20T00:06:25;17.00;99.90
28524;DHT22;15734;50.904;6.922;2023-07-20T00:08:56;17.00;99.90
28524;DHT22;15734;50.904;6.922;2023-07-20T00:11:26;17.10;99.90
28524;DHT22;15734;50.904;6.922;2023-07-20T00:13:52;17.30;99.90
28524;DHT22;15734;50.904;6.922;2023-07-20T00:16:17;17.40;99.90
28524;DHT22;15734;50.904;6.922;2023-07-20T00:18:43;17.40;99.90
28524;DHT22;15734;50.904;6.922;2023-07-20T00:21:09;17.40;99.90
28524;DHT22;15734;50.904;6.922;2023-07-20T00:23:34;17.40;99.90
28524;DHT22;15734;50.904;6.922;2023-07-20T00:26:00;17.50;99.90
28524;DHT22;15734;50.904;6.922;2023-07-20T00:28:26;17.60;99.90
28524;DHT22;15734;50.904;6.922;2023-07-20T00:30:51;17.60;99.90
28524;DHT22;15734;50.904;6.922;2023-07-20T00:33:17;17.70;99.90
28524;DHT22;15734;50.904;6.922;2023-07-20T00:35:43;17.80;99.90
28524;DHT22;15734;50.904;6.922;2023-07-20T00:38:09;17.70;99.90
28524;DHT22;15734;50.904;6.922;2023-07-20T00:40:39;17.70;99.90
28524;DHT22;15734;50.904;6.922;2023-07-20T00:43:05;17.80;99.90
28524;DHT22;15734;50.904;6.922;2023-07-20T00:45:31;17.80;99.90
28524;DHT22;15734;50.904;6.922;2023-07-20T00:47:58;17.80;99.90
28524;DHT22;15734;50.904;6.922;2023-07-20T00:50:25;17.70;99.90
28524;DHT22;15734;50.904;6.922;2023-07-20T00:52:51;17.70;99.90
28524;DHT22;15734;50.904;6.922;2023-07-20T00:55:18;17.70;99.90
28524;DHT22;15734;50.904;6.922;2023-07-20T00:57:44;17.60;99.90
28524;DHT22;15734;50.904;6.922;2023-07-20T01:00:10;17.70;99.90
28524;DHT22;15734;50.904;6.922;2023-07-20T01:02:36;17.60;99.90
28524;DHT22;15734;50.904;6.922;2023-07-20T01:05:02;17.60;99.90
28524;DHT22;15734;50.904;6.922;2023-07-20T01:07:34;17.60;99.90
28524;DHT22;15734;50.904;6.922;2023-07-20T01:12:42;17.60;99.90
28524;DHT22;15734;50.904;6.922;2023-07-20T01:15:08;17.70;99.90
28524;DHT22;15734;50.904;6.922;2023-07-20T01:17:35;17.60;99.90
28524;DHT22;15734;50.904;6.922;2023-07-20T01:20:01;17.70;99.90
28524;DHT22;15734;50.904;6.922;2023-07-20T01:33:13;17.60;99.90
28524;DHT22;15734;50.904;6.922;2023-07-20T01:35:41;17.50;99.90
28524;DHT22;15734;50.904;6.922;2023-07-20T01:38:10;17.50;99.90
28524;DHT22;15734;50.904;6.922;2023-07-20T01:40:36;17.40;99.90
28524;DHT22;15734;50.904;6.922;2023-07-20T01:43:02;17.40;99.90
28524;DHT22;15734;50.904;6.922;2023-07-20T01:45:28;17.40;99.90
28524;DHT22;15734;50.904;6.922;2023-07-20T01:47:54;17.30;99.90
28524;DHT22;15734;50.904;6.922;2023-07-20T01:50:19;17.30;99.90
28524;DHT22;15734;50.904;6.922;2023-07-20T01:52:45;17.30;99.90
28524;DHT22;15734;50.904;6.922;2023-07-20T01:55:10;17.20;99.90
28524;DHT22;15734;50.904;6.922;2023-07-20T01:57:36;17.20;99.90
28524;DHT22;15734;50.904;6.922;2023-07-20T02:00:02;17.20;99.90
28524;DHT22;15734;50.904;6.922;2023-07-20T02:02:28;17.20;99.90
28524;DHT22;15734;50.904;6.922;2023-07-20T02:04:53;17.20;99.90
28524;DHT22;15734;50.904;6.922;2023-07-20T02:07:19;17.20;99.90
28524;DHT22;15734;50.904;6.922;2023-07-20T02:09:45;17.20;99.90
28524;DHT22;15734;50.904;6.922;2023-07-20T02:12:10;17.20;99.90
28524;DHT22;15734;50.904;6.922;2023-07-20T02:14:36;17.20;99.90
28524;DHT22;15734;50.904;6.922;2023-07-20T02:17:01;17.20;99.90
28524;DHT22;15734;50.904;6.922;2023-07-20T02:19:28;17.10;99.90
28524;DHT22;15734;50.904;6.922;2023-07-20T02:21:54;17.00;99.90
28524;DHT22;15734;50.904;6.922;2023-07-20T02:24:19;17.00;99.90
28524;DHT22;15734;50.904;6.922;2023-07-20T02:26:45;17.00;99.90
28524;DHT22;15734;50.904;6.922;2023-07-20T02:29:10;17.00;99.90
28524;DHT22;15734;50.904;6.922;2023-07-20T02:31:39;16.90;99.90
28524;DHT22;15734;50.904;6.922;2023-07-20T02:34:07;16.90;99.90
28524;DHT22;15734;50.904;6.922;2023-07-20T02:36:34;16.80;99.90
28524;DHT22;15734;50.904;6.922;2023-07-20T02:39:00;16.80;99.90
28524;DHT22;15734;50.904;6.922;2023-07-20T02:41:27;16.80;99.90
28524;DHT22;15734;50.904;6.922;2023-07-20T02:43:53;16.80;99.90
28524;DHT22;15734;50.904;6.922;2023-07-20T02:46:18;16.70;99.90
28524;DHT22;15734;50.904;6.922;2023-07-20T02:48:44;16.70;99.90
28524;DHT22;15734;50.904;6.922;2023-07-20T02:51:09;16.60;99.90
28524;DHT22;15734;50.904;6.922;2023-07-20T02:53:36;16.70;99.90
28524;DHT22;15734;50.904;6.922;2023-07-20T02:56:02;16.60;99.90
28524;DHT22;15734;50.904;6.922;2023-07-20T02:58:27;16.70;99.90
28524;DHT22;15734;50.904;6.922;2023-07-20T03:00:53;16.60;99.90
28524;DHT22;15734;50.904;6.922;2023-07-20T03:03:19;16.60;99.90
28524;DHT22;15734;50.904;6.922;2023-07-20T03:05:45;16.60;99.90
28524;DHT22;15734;50.904;6.922;2023-07-20T03:08:11;16.50;99.90
28524;DHT22;15734;50.904;6.922;2023-07-20T03:10:40;16.50;99.90
28524;DHT22;15734;50.904;6.922;2023-07-20T03:13:06;16.50;99.90
28524;DHT22;15734;50.904;6.922;2023-07-20T03:15:32;16.40;99.90
28524;DHT22;15734;50.904;6.922;2023-07-20T03:17:58;16.40;99.90
28524;DHT22;15734;50.904;6.922;2023-07-20T03:20:24;16.40;99.90
28524;DHT22;15734;50.904;6.922;2023-07-20T03:22:49;16.40;99.90
28524;DHT22;15734;50.904;6.922;2023-07-20T03:25:15;16.40;99.90
28524;DHT22;15734;50.904;6.922;2023-07-20T03:27:40;16.40;99.90
28524;DHT22;15734;50.904;6.922;2023-07-20T03:30:07;16.40;99.90
28524;DHT22;15734;50.904;6.922;2023-07-20T03:32:35;16.30;99.90
28524;DHT22;15734;50.904;6.922;2023-07-20T03:35:01;16.30;99.90
28524;DHT22;15734;50.904;6.922;2023-07-20T03:37:26;16.30;99.90
28524;DHT22;15734;50.904;6.922;2023-07-20T03:39:52;16.30;99.90
28524;DHT22;15734;50.904;6.922;2023-07-20T03:42:17;16.40;99.90
28524;DHT22;15734;50.904;6.922;2023-07-20T03:44:43;16.40;99.90
28524;DHT22;15734;50.904;6.922;2023-07-20T03:47:09;16.40;99.90
28524;DHT22;15734;50.904;6.922;2023-07-20T03:49:35;16.40;99.90
28524;DHT22;15734;50.904;6.922;2023-07-20T03:52:01;16.50;99.90
28524;DHT22;15734;50.904;6.922;2023-07-20T03:54:29;16.40;99.90
28524;DHT22;15734;50.904;6.922;2023-07-20T03:56:54;16.50;99.90
28524;DHT22;15734;50.904;6.922;2023-07-20T03:59:20;16.50;99.90
28524;DHT22;15734;50.904;6.922;2023-07-20T04:01:46;16.50;99.90
28524;DHT22;15734;50.904;6.922;2023-07-20T04:04:11;16.50;99.90
28524;DHT22;15734;50.904;6.922;2023-07-20T04:06:37;16.60;99.90
28524;DHT22;15734;50.904;6.922;2023-07-20T04:09:03;16.60;99.90
28524;DHT22;15734;50.904;6.922;2023-07-20T04:11:30;16.60;99.90
28524;DHT22;15734;50.904;6.922;2023-07-20T04:13:56;16.60;99.90
28524;DHT22;15734;50.904;6.922;2023-07-20T04:16:21;16.60;99.90
28524;DHT22;15734;50.904;6.922;2023-07-20T04:18:47;16.70;99.90
28524;DHT22;15734;50.904;6.922;2023-07-20T04:21:13;16.70;99.90
28524;DHT22;15734;50.904;6.922;2023-07-20T04:23:38;16.70;99.90
28524;DHT22;15734;50.904;6.922;2023-07-20T04:26:04;16.70;99.90
28524;DHT22;15734;50.904;6.922;2023-07-20T04:28:29;16.70;99.90
28524;DHT22;15734;50.904;6.922;2023-07-20T04:31:12;16.70;99.90
28524;DHT22;15734;50.904;6.922;2023-07-20T04:33:38;16.80;99.90
28524;DHT22;15734;50.904;6.922;2023-07-20T04:36:03;16.70;99.90
28524;DHT22;15734;50.904;6.922;2023-07-20T04:38:29;16.80;99.90
28524;DHT22;15734;50.904;6.922;2023-07-20T04:40:55;16.80;99.90
28524;DHT22;15734;50.904;6.922;2023-07-20T04:43:21;16.80;99.90
28524;DHT22;15734;50.904;6.922;2023-07-20T04:45:46;16.80;99.90
28524;DHT22;15734;50.904;6.922;2023-07-20T04:48:13;16.80;99.90
28524;DHT22;15734;50.904;6.922;2023-07-20T04:50:45;16.80;99.90
28524;DHT22;15734;50.904;6.922;2023-07-20T04:53:11;16.90;99.90
28524;DHT22;15734;50.904;6.922;2023-07-20T04:55:38;16.90;99.90
28524;DHT22;15734;50.904;6.922;2023-07-20T04:58:05;17.00;99.90
28524;DHT22;15734;50.904;6.922;2023-07-20T05:00:35;17.00;99.90
28524;DHT22;15734;50.904;6.922;2023-07-20T05:03:00;16.90;99.90
28524;DHT22;15734;50.904;6.922;2023-07-20T05:05:26;17.00;99.90
28524;DHT22;15734;50.904;6.922;2023-07-20T05:07:52;17.00;99.90
28524;DHT22;15734;50.904;6.922;2023-07-20T05:10:17;17.00;99.90
28524;DHT22;15734;50.904;6.922;2023-07-20T05:12:43;17.00;99.90
28524;DHT22;15734;50.904;6.922;2023-07-20T05:15:09;17.00;99.90
28524;DHT22;15734;50.904;6.922;2023-07-20T05:17:34;17.10;99.90
28524;DHT22;15734;50.904;6.922;2023-07-20T05:20:00;17.10;99.90
28524;DHT22;15734;50.904;6.922;2023-07-20T05:22:26;17.10;99.90
28524;DHT22;15734;50.904;6.922;2023-07-20T05:24:51;17.10;99.90
28524;DHT22;15734;50.904;6.922;2023-07-20T05:27:17;17.10;99.90
28524;DHT22;15734;50.904;6.922;2023-07-20T05:29:45;17.10;99.90
28524;DHT22;15734;50.904;6.922;2023-07-20T05:32:12;17.20;99.90
28524;DHT22;15734;50.904;6.922;2023-07-20T05:34:38;17.20;99.90
28524;DHT22;15734;50.904;6.922;2023-07-20T05:37:03;17.10;99.90
28524;DHT22;15734;50.904;6.922;2023-07-20T05:39:29;17.20;99.90
28524;DHT22;15734;50.904;6.922;2023-07-20T05:41:54;17.20;99.90
28524;DHT22;15734;50.904;6.922;2023-07-20T05:44:20;17.20;99.90
28524;DHT22;15734;50.904;6.922;2023-07-20T05:46:45;17.20;99.90
28524;DHT22;15734;50.904;6.922;2023-07-20T05:49:11;17.10;99.90
28524;DHT22;15734;50.904;6.922;2023-07-20T05:51:36;17.20;99.90
28524;DHT22;15734;50.904;6.922;2023-07-20T05:54:02;17.30;99.90
28524;DHT22;15734;50.904;6.922;2023-07-20T05:56:28;17.30;99.90
28524;DHT22;15734;50.904;6.922;2023-07-20T05:58:53;17.30;99.90
28524;DHT22;15734;50.904;6.922;2023-07-20T06:01:19;17.40;99.90
28524;DHT22;15734;50.904;6.922;2023-07-20T06:03:44;17.40;99.90
28524;DHT22;15734;50.904;6.922;2023-07-20T06:06:10;17.50;99.90
28524;DHT22;15734;50.904;6.922;2023-07-20T06:08:37;17.50;99.90
28524;DHT22;15734;50.904;6.922;2023-07-20T06:11:03;17.50;99.90
28524;DHT22;15734;50.904;6.922;2023-07-20T06:13:28;17.50;99.90
28524;DHT22;15734;50.904;6.922;2023-07-20T06:15:54;17.50;99.90
28524;DHT22;15734;50.904;6.922;2023-07-20T06:18:22;17.60;99.90
28524;DHT22;15734;50.904;6.922;2023-07-20T06:20:51;17.60;99.90
28524;DHT22;15734;50.904;6.922;2023-07-20T06:23:20;17.70;99.90
28524;DHT22;15734;50.904;6.922;2023-07-20T06:25:46;17.70;99.90
28524;DHT22;15734;50.904;6.922;2023-07-20T06:28:12;17.60;99.90
28524;DHT22;15734;50.904;6.922;2023-07-20T06:30:38;17.60;99.90
28524;DHT22;15734;50.904;6.922;2023-07-20T06:33:03;17.60;99.90
28524;DHT22;15734;50.904;6.922;2023-07-20T06:35:29;17.50;99.90
28524;DHT22;15734;50.904;6.922;2023-07-20T06:37:54;17.60;99.90
28524;DHT22;15734;50.904;6.922;2023-07-20T06:40:21;17.70;99.90
28524;DHT22;15734;50.904;6.922;2023-07-20T06:42:47;17.70;99.90
28524;DHT22;15734;50.904;6.922;2023-07-20T06:45:12;17.80;99.90
28524;DHT22;15734;50.904;6.922;2023-07-20T06:47:41;17.90;99.90
28524;DHT22;15734;50.904;6.922;2023-07-20T06:50:07;17.80;99.90
28524;DHT22;15734;50.904;6.922;2023-07-20T06:52:33;17.90;99.90
28524;DHT22;15734;50.904;6.922;2023-07-20T06:54:59;18.00;99.90
28524;DHT22;15734;50.904;6.922;2023-07-20T06:57:25;18.10;99.90
28524;DHT22;15734;50.904;6.922;2023-07-20T06:59:51;18.10;99.90
28524;DHT22;15734;50.904;6.922;2023-07-20T07:02:17;18.20;99.90
28524;DHT22;15734;50.904;6.922;2023-07-20T07:04:43;18.20;99.90
28524;DHT22;15734;50.904;6.922;2023-07-20T07:07:09;18.10;99.90
28524;DHT22;15734;50.904;6.922;2023-07-20T07:09:35;18.00;99.90
28524;DHT22;15734;50.904;6.922;2023-07-20T07:12:00;18.00;99.90
28524;DHT22;15734;50.904;6.922;2023-07-20T07:14:26;18.10;99.90
28524;DHT22;15734;50.904;6.922;2023-07-20T07:16:52;18.20;99.90
28524;DHT22;15734;50.904;6.922;2023-07-20T07:19:18;18.40;99.90
28524;DHT22;15734;50.904;6.922;2023-07-20T07:21:43;18.50;99.90
28524;DHT22;15734;50.904;6.922;2023-07-20T07:24:09;18.60;99.90
28524;DHT22;15734;50.904;6.922;2023-07-20T07:26:36;18.60;99.90
28524;DHT22;15734;50.904;6.922;2023-07-20T07:29:01;18.60;99.90
28524;DHT22;15734;50.904;6.922;2023-07-20T07:31:29;18.70;99.90
28524;DHT22;15734;50.904;6.922;2023-07-20T07:33:55;18.80;99.90
28524;DHT22;15734;50.904;6.922;2023-07-20T07:36:21;18.90;99.90
28524;DHT22;15734;50.904;6.922;2023-07-20T07:38:46;18.80;99.90
28524;DHT22;15734;50.904;6.922;2023-07-20T07:41:12;18.70;99.90
28524;DHT22;15734;50.904;6.922;2023-07-20T07:43:37;18.60;99.90
28524;DHT22;15734;50.904;6.922;2023-07-20T07:46:04;18.70;99.90
28524;DHT22;15734;50.904;6.922;2023-07-20T07:48:29;18.80;99.90
28524;DHT22;15734;50.904;6.922;2023-07-20T07:50:55;18.70;99.90
28524;DHT22;15734;50.904;6.922;2023-07-20T07:53:20;18.70;99.90
28524;DHT22;15734;50.904;6.922;2023-07-20T07:55:49;18.90;99.90
28524;DHT22;15734;50.904;6.922;2023-07-20T07:58:15;19.00;99.90
28524;DHT22;15734;50.904;6.922;2023-07-20T08:00:40;19.20;99.90
28524;DHT22;15734;50.904;6.922;2023-07-20T08:03:06;19.20;99.90
28524;DHT22;15734;50.904;6.922;2023-07-20T08:05:33;19.30;99.90
28524;DHT22;15734;50.904;6.922;2023-07-20T08:07:58;19.50;99.90
28524;DHT22;15734;50.904;6.922;2023-07-20T08:10:24;19.60;99.90
28524;DHT22;15734;50.904;6.922;2023-07-20T08:12:49;19.60;99.90
28524;DHT22;15734;50.904;6.922;2023-07-20T08:15:15;19.40;99.90
28524;DHT22;15734;50.904;6.922;2023-07-20T08:17:41;19.20;99.90
28524;DHT22;15734;50.904;6.922;2023-07-20T08:20:09;19.20;99.90
28524;DHT22;15734;50.904;6.922;2023-07-20T08:22:37;19.40;99.90
28524;DHT22;15734;50.904;6.922;2023-07-20T08:25:03;19.40;99.90
28524;DHT22;15734;50.904;6.922;2023-07-20T08:27:29;19.40;99.90
28524;DHT22;15734;50.904;6.922;2023-07-20T08:29:55;19.40;99.90
28524;DHT22;15734;50.904;6.922;2023-07-20T08:32:20;19.60;99.90
28524;DHT22;15734;50.904;6.922;2023-07-20T08:34:46;19.80;99.90
28524;DHT22;15734;50.904;6.922;2023-07-20T08:37:11;19.90;99.90
28524;DHT22;15734;50.904;6.922;2023-07-20T08:39:37;20.00;99.90
28524;DHT22;15734;50.904;6.922;2023-07-20T08:42:03;19.90;99.90
28524;DHT22;15734;50.904;6.922;2023-07-20T08:44:33;20.00;99.90
28524;DHT22;15734;50.904;6.922;2023-07-20T08:47:00;20.10;99.90
28524;DHT22;15734;50.904;6.922;2023-07-20T08:49:27;20.20;99.90
28524;DHT22;15734;50.904;6.922;2023-07-20T08:51:53;20.30;99.90
28524;DHT22;15734;50.904;6.922;2023-07-20T08:54:19;20.40;99.90
28524;DHT22;15734;50.904;6.922;2023-07-20T08:56:45;20.40;99.90
28524;DHT22;15734;50.904;6.922;2023-07-20T08:59:13;20.50;99.90
28524;DHT22;15734;50.904;6.922;2023-07-20T09:01:41;20.50;99.90
28524;DHT22;15734;50.904;6.922;2023-07-20T09:04:08;20.50;99.90
28524;DHT22;15734;50.904;6.922;2023-07-20T09:06:35;20.50;99.90
28524;DHT22;15734;50.904;6.922;2023-07-20T09:09:00;20.60;99.90
28524;DHT22;15734;50.904;6.922;2023-07-20T09:11:26;20.50;99.90
28524;DHT22;15734;50.904;6.922;2023-07-20T09:14:07;20.60;99.90
28524;DHT22;15734;50.904;6.922;2023-07-20T09:16:47;20.50;99.90
28524;DHT22;15734;50.904;6.922;2023-07-20T09:19:18;20.50;99.90
28524;DHT22;15734;50.904;6.922;2023-07-20T09:21:49;20.50;99.90
28524;DHT22;15734;50.904;6.922;2023-07-20T09:24:19;20.70;99.90
28524;DHT22;15734;50.904;6.922;2023-07-20T09:26:47;20.90;99.90
28524;DHT22;15734;50.904;6.922;2023-07-20T09:29:19;20.90;99.90
28524;DHT22;15734;50.904;6.922;2023-07-20T09:31:59;20.90;99.90
28524;DHT22;15734;50.904;6.922;2023-07-20T09:34:26;20.80;99.90
28524;DHT22;15734;50.904;6.922;2023-07-20T09:36:52;21.10;99.90
28524;DHT22;15734;50.904;6.922;2023-07-20T09:39:18;21.40;99.90
28524;DHT22;15734;50.904;6.922;2023-07-20T09:41:45;21.70;99.90
28524;DHT22;15734;50.904;6.922;2023-07-20T09:44:10;21.80;99.90
28524;DHT22;15734;50.904;6.922;2023-07-20T09:46:47;21.80;99.90
28524;DHT22;15734;50.904;6.922;2023-07-20T09:49:14;21.70;99.90
28524;DHT22;15734;50.904;6.922;2023-07-20T09:51:40;21.70;99.90
28524;DHT22;15734;50.904;6.922;2023-07-20T09:54:06;21.80;99.90
28524;DHT22;15734;50.904;6.922;2023-07-20T09:56:33;21.90;99.90
28524;DHT22;15734;50.904;6.922;2023-07-20T09:58:58;22.00;99.90
28524;DHT22;15734;50.904;6.922;2023-07-20T10:01:24;22.10;99.90
28524;DHT22;15734;50.904;6.922;2023-07-20T10:03:53;21.90;99.90
28524;DHT22;15734;50.904;6.922;2023-07-20T10:06:24;21.60;99.90
28524;DHT22;15734;50.904;6.922;2023-07-20T10:08:52;21.50;99.90
28524;DHT22;15734;50.904;6.922;2023-07-20T10:11:18;21.40;99.90
28524;DHT22;15734;50.904;6.922;2023-07-20T10:13:47;21.50;99.90
28524;DHT22;15734;50.904;6.922;2023-07-20T10:16:27;22.00;99.90
28524;DHT22;15734;50.904;6.922;2023-07-20T10:21:29;22.60;99.90
28524;DHT22;15734;50.904;6.922;2023-07-20T10:23:59;22.60;99.90
28524;DHT22;15734;50.904;6.922;2023-07-20T10:26:26;22.60;99.90
28524;DHT22;15734;50.904;6.922;2023-07-20T10:28:52;22.80;99.90
28524;DHT22;15734;50.904;6.922;2023-07-20T10:31:18;22.70;99.90
28524;DHT22;15734;50.904;6.922;2023-07-20T10:33:44;22.80;99.90
28524;DHT22;15734;50.904;6.922;2023-07-20T10:36:11;22.60;99.90
28524;DHT22;15734;50.904;6.922;2023-07-20T10:41:29;22.50;99.90
28524;DHT22;15734;50.904;6.922;2023-07-20T10:44:02;22.60;99.90
28524;DHT22;15734;50.904;6.922;2023-07-20T10:46:42;22.90;99.90
28524;DHT22;15734;50.904;6.922;2023-07-20T10:49:10;23.30;99.90
28524;DHT22;15734;50.904;6.922;2023-07-20T10:51:40;23.50;99.90
28524;DHT22;15734;50.904;6.922;2023-07-20T10:54:33;23.80;99.90
28524;DHT22;15734;50.904;6.922;2023-07-20T10:57:23;23.20;99.90
28524;DHT22;15734;50.904;6.922;2023-07-20T10:59:49;22.80;99.90
28524;DHT22;15734;50.904;6.922;2023-07-20T11:02:18;22.60;99.90
28524;DHT22;15734;50.904;6.922;2023-07-20T11:04:46;22.50;99.90
28524;DHT22;15734;50.904;6.922;2023-07-20T11:07:35;22.40;99.90
28524;DHT22;15734;50.904;6.922;2023-07-20T11:10:13;22.40;99.90
28524;DHT22;15734;50.904;6.922;2023-07-20T11:12:40;22.20;99.90
28524;DHT22;15734;50.904;6.922;2023-07-20T11:15:06;22.10;99.90
28524;DHT22;15734;50.904;6.922;2023-07-20T11:17:33;22.00;99.90
28524;DHT22;15734;50.904;6.922;2023-07-20T11:20:00;22.20;99.90
28524;DHT22;15734;50.904;6.922;2023-07-20T11:22:31;22.30;99.90
28524;DHT22;15734;50.904;6.922;2023-07-20T11:24:57;22.30;99.90
28524;DHT22;15734;50.904;6.922;2023-07-20T11:27:23;22.30;99.90
28524;DHT22;15734;50.904;6.922;2023-07-20T11:29:49;22.50;99.90
28524;DHT22;15734;50.904;6.922;2023-07-20T11:32:23;22.60;99.90
28524;DHT22;15734;50.904;6.922;2023-07-20T11:34:49;22.80;99.90
28524;DHT22;15734;50.904;6.922;2023-07-20T11:37:15;22.70;99.90
28524;DHT22;15734;50.904;6.922;2023-07-20T11:39:41;22.50;99.90
28524;DHT22;15734;50.904;6.922;2023-07-20T11:42:07;22.30;99.90
28524;DHT22;15734;50.904;6.922;2023-07-20T11:44:32;22.50;99.90
28524;DHT22;15734;50.904;6.922;2023-07-20T11:47:09;22.70;99.90
28524;DHT22;15734;50.904;6.922;2023-07-20T11:49:36;22.90;99.90
28524;DHT22;15734;50.904;6.922;2023-07-20T11:52:07;23.10;99.90
28524;DHT22;15734;50.904;6.922;2023-07-20T11:54:34;23.20;99.90
28524;DHT22;15734;50.904;6.922;2023-07-20T11:57:03;23.10;99.90
28524;DHT22;15734;50.904;6.922;2023-07-20T11:59:30;23.00;99.90
28524;DHT22;15734;50.904;6.922;2023-07-20T12:01:57;23.30;99.90
28524;DHT22;15734;50.904;6.922;2023-07-20T12:04:23;23.40;99.90
28524;DHT22;15734;50.904;6.922;2023-07-20T12:06:48;23.30;99.90
28524;DHT22;15734;50.904;6.922;2023-07-20T12:09:16;23.30;99.90
28524;DHT22;15734;50.904;6.922;2023-07-20T12:11:43;23.50;99.90
28524;DHT22;15734;50.904;6.922;2023-07-20T12:14:10;23.90;99.90
28524;DHT22;15734;50.904;6.922;2023-07-20T12:16:36;23.90;99.90
28524;DHT22;15734;50.904;6.922;2023-07-20T12:19:05;23.10;99.90
28524;DHT22;15734;50.904;6.922;2023-07-20T12:21:31;23.10;99.90
28524;DHT22;15734;50.904;6.922;2023-07-20T12:23:58;23.00;99.90
28524;DHT22;15734;50.904;6.922;2023-07-20T12:26:24;22.90;99.90
28524;DHT22;15734;50.904;6.922;2023-07-20T12:28:51;22.60;99.90
28524;DHT22;15734;50.904;6.922;2023-07-20T12:31:16;22.60;99.90
28524;DHT22;15734;50.904;6.922;2023-07-20T12:33:42;22.60;99.90
28524;DHT22;15734;50.904;6.922;2023-07-20T12:36:09;22.50;99.90
28524;DHT22;15734;50.904;6.922;2023-07-20T12:38:35;22.30;99.90
28524;DHT22;15734;50.904;6.922;2023-07-20T12:41:01;22.20;99.90
28524;DHT22;15734;50.904;6.922;2023-07-20T12:43:27;22.10;99.90
28524;DHT22;15734;50.904;6.922;2023-07-20T12:45:53;22.10;99.90
28524;DHT22;15734;50.904;6.922;2023-07-20T12:48:19;22.10;99.90
28524;DHT22;15734;50.904;6.922;2023-07-20T12:50:45;22.10;99.90
28524;DHT22;15734;50.904;6.922;2023-07-20T12:53:10;22.10;99.90
28524;DHT22;15734;50.904;6.922;2023-07-20T12:55:37;22.10;99.90
28524;DHT22;15734;50.904;6.922;2023-07-20T12:58:03;22.20;99.90
28524;DHT22;15734;50.904;6.922;2023-07-20T13:00:29;22.30;99.90
28524;DHT22;15734;50.904;6.922;2023-07-20T13:02:54;22.40;99.90
28524;DHT22;15734;50.904;6.922;2023-07-20T13:05:20;22.40;99.90
28524;DHT22;15734;50.904;6.922;2023-07-20T13:07:46;22.40;99.90
28524;DHT22;15734;50.904;6.922;2023-07-20T13:10:11;22.30;99.90
28524;DHT22;15734;50.904;6.922;2023-07-20T13:12:37;22.20;99.90
28524;DHT22;15734;50.904;6.922;2023-07-20T13:15:05;22.20;99.90
28524;DHT22;15734;50.904;6.922;2023-07-20T13:17:32;22.40;99.90
28524;DHT22;15734;50.904;6.922;2023-07-20T13:19:58;22.50;99.90
28524;DHT22;15734;50.904;6.922;2023-07-20T13:22:24;22.60;99.90
28524;DHT22;15734;50.904;6.922;2023-07-20T13:24:49;22.60;99.90
28524;DHT22;15734;50.904;6.922;2023-07-20T13:27:19;22.80;99.90
28524;DHT22;15734;50.904;6.922;2023-07-20T13:29:44;22.80;99.90
28524;DHT22;15734;50.904;6.922;2023-07-20T13:32:13;22.80;99.90
28524;DHT22;15734;50.904;6.922;2023-07-20T13:34:39;22.80;99.90
28524;DHT22;15734;50.904;6.922;2023-07-20T13:37:04;22.70;99.90
28524;DHT22;15734;50.904;6.922;2023-07-20T13:39:31;22.70;99.90
28524;DHT22;15734;50.904;6.922;2023-07-20T13:41:56;22.80;99.90
28524;DHT22;15734;50.904;6.922;2023-07-20T13:44:22;22.60;99.90
28524;DHT22;15734;50.904;6.922;2023-07-20T13:46:48;22.70;99.90
28524;DHT22;15734;50.904;6.922;2023-07-20T13:49:14;22.70;99.90
28524;DHT22;15734;50.904;6.922;2023-07-20T13:51:41;22.70;99.90
28524;DHT22;15734;50.904;6.922;2023-07-20T13:54:07;22.80;99.90
28524;DHT22;15734;50.904;6.922;2023-07-20T13:56:32;23.00;99.90
28524;DHT22;15734;50.904;6.922;2023-07-20T13:58:58;23.40;99.90
28524;DHT22;15734;50.904;6.922;2023-07-20T14:01:24;24.10;99.90
28524;DHT22;15734;50.904;6.922;2023-07-20T14:03:50;24.70;99.90
28524;DHT22;15734;50.904;6.922;2023-07-20T14:06:17;24.90;96.80
28524;DHT22;15734;50.904;6.922;2023-07-20T14:08:43;24.90;97.00
28524;DHT22;15734;50.904;6.922;2023-07-20T14:11:12;25.20;96.00
28524;DHT22;15734;50.904;6.922;2023-07-20T14:13:37;24.70;95.60
28524;DHT22;15734;50.904;6.922;2023-07-20T14:16:04;25.10;96.50
28524;DHT22;15734;50.904;6.922;2023-07-20T14:18:29;25.40;95.10
28524;DHT22;15734;50.904;6.922;2023-07-20T14:20:55;25.80;96.30
28524;DHT22;15734;50.904;6.922;2023-07-20T14:23:20;26.30;92.70
28524;DHT22;15734;50.904;6.922;2023-07-20T14:25:46;26.20;90.90
28524;DHT22;15734;50.904;6.922;2023-07-20T14:28:11;26.30;90.10
28524;DHT22;15734;50.904;6.922;2023-07-20T14:30:38;26.50;90.50
28524;DHT22;15734;50.904;6.922;2023-07-20T14:33:03;26.50;90.20
28524;DHT22;15734;50.904;6.922;2023-07-20T14:35:29;26.60;89.20
28524;DHT22;15734;50.904;6.922;2023-07-20T14:37:54;26.70;89.10
28524;DHT22;15734;50.904;6.922;2023-07-20T14:40:20;26.70;86.50
28524;DHT22;15734;50.904;6.922;2023-07-20T14:42:46;26.70;82.20
28524;DHT22;15734;50.904;6.922;2023-07-20T14:45:11;26.60;82.60
28524;DHT22;15734;50.904;6.922;2023-07-20T14:47:37;26.80;81.20
28524;DHT22;15734;50.904;6.922;2023-07-20T14:50:03;26.70;80.80
28524;DHT22;15734;50.904;6.922;2023-07-20T14:52:29;27.00;78.40
28524;DHT22;15734;50.904;6.922;2023-07-20T14:54:54;27.00;78.20
28524;DHT22;15734;50.904;6.922;2023-07-20T14:57:20;26.80;77.90
28524;DHT22;15734;50.904;6.922;2023-07-20T14:59:51;26.80;77.00
28524;DHT22;15734;50.904;6.922;2023-07-20T15:02:20;26.90;77.10
28524;DHT22;15734;50.904;6.922;2023-07-20T15:04:49;26.90;77.00
28524;DHT22;15734;50.904;6.922;2023-07-20T15:07:17;26.60;77.30
28524;DHT22;15734;50.904;6.922;2023-07-20T15:09:44;26.80;77.90
28524;DHT22;15734;50.904;6.922;2023-07-20T15:12:09;27.20;76.30
28524;DHT22;15734;50.904;6.922;2023-07-20T15:14:35;27.60;75.00
28524;DHT22;15734;50.904;6.922;2023-07-20T15:17:01;27.50;74.80
28524;DHT22;15734;50.904;6.922;2023-07-20T15:19:28;27.50;72.80
28524;DHT22;15734;50.904;6.922;2023-07-20T15:21:53;27.20;73.80
28524;DHT22;15734;50.904;6.922;2023-07-20T15:24:19;26.70;75.40
28524;DHT22;15734;50.904;6.922;2023-07-20T15:26:44;26.40;76.00
28524;DHT22;15734;50.904;6.922;2023-07-20T15:29:10;26.00;77.00
28524;DHT22;15734;50.904;6.922;2023-07-20T15:31:35;25.80;78.30
28524;DHT22;15734;50.904;6.922;2023-07-20T15:34:01;25.50;79.70
28524;DHT22;15734;50.904;6.922;2023-07-20T15:36:27;25.70;81.30
28524;DHT22;15734;50.904;6.922;2023-07-20T15:38:52;25.60;82.30
28524;DHT22;15734;50.904;6.922;2023-07-20T15:41:18;25.70;83.00
28524;DHT22;15734;50.904;6.922;2023-07-20T15:43:43;25.80;84.80
28524;DHT22;15734;50.904;6.922;2023-07-20T15:48:43;26.10;83.70